sensor_id;sensor_type;location;lat;lon;timestamp;pressure;altitude;pressure_sealevel;temperature
7389;BMP180;3735;50.136;11.062;2022-09-30T00:00:08;97332.00;;;5.70
7389;BMP180;3735;50.136;11.062;2022-09-30T00:02:34;97331.00;;;5.60
7389;BMP180;3735;50.136;11.062;2022-09-30T00:05:00;97347.00;;;5.50
7389;BMP180;3735;50.136;11.062;2022-09-30T00:07:25;97341.00;;;5.40
7389;BMP180;3735;50.136;11.062;2022-09-30T00:09:51;97346.00;;;5.40
7389;BMP180;3735;50.136;11.062;2022-09-30T00:12:17;97345.00;;;5.50
7389;BMP180;3735;50.136;11.062;2022-09-30T00:14:43;97335.00;;;5.40
7389;BMP180;3735;50.136;11.062;2022-09-30T00:17:08;97344.00;;;5.40
7389;BMP180;3735;50.136;11.062;2022-09-30T00:19:34;97336.00;;;5.30
7389;BMP180;3735;50.136;11.062;2022-09-30T00:22:00;97333.00;;;5.30
7389;BMP180;3735;50.136;11.062;2022-09-30T00:24:26;97352.00;;;5.30
7389;BMP180;3735;50.136;11.062;2022-09-30T00:26:55;97351.00;;;5.30
7389;BMP180;3735;50.136;11.062;2022-09-30T00:29:21;97354.00;;;5.30
7389;BMP180;3735;50.136;11.062;2022-09-30T00:31:46;97350.00;;;5.30
7389;BMP180;3735;50.136;11.062;2022-09-30T00:34:12;97364.00;;;5.20
7389;BMP180;3735;50.136;11.062;2022-09-30T00:36:49;97350.00;;;5.30
7389;BMP180;3735;50.136;11.062;2022-09-30T00:39:18;97351.00;;;5.40
7389;BMP180;3735;50.136;11.062;2022-09-30T00:41:49;97339.00;;;5.40
7389;BMP180;3735;50.136;11.062;2022-09-30T00:44:49;97342.00;;;5.50
7389;BMP180;3735;50.136;11.062;2022-09-30T00:47:56;97327.00;;;5.60
7389;BMP180;3735;50.136;11.062;2022-09-30T00:53:30;97351.00;;;5.70
7389;BMP180;3735;50.136;11.062;2022-09-30T00:56:02;97352.00;;;5.80
7389;BMP180;3735;50.136;11.062;2022-09-30T00:58:52;97341.00;;;5.90
7389;BMP180;3735;50.136;11.062;2022-09-30T01:01:19;97339.00;;;5.90
7389;BMP180;3735;50.136;11.062;2022-09-30T01:04:01;97350.00;;;5.90
7389;BMP180;3735;50.136;11.062;2022-09-30T01:06:28;97354.00;;;6.00
7389;BMP180;3735;50.136;11.062;2022-09-30T01:08:54;97354.00;;;6.10
7389;BMP180;3735;50.136;11.062;2022-09-30T01:11:23;97353.00;;;6.10
7389;BMP180;3735;50.136;11.062;2022-09-30T01:13:53;97342.00;;;6.20
7389;BMP180;3735;50.136;11.062;2022-09-30T01:22:57;97356.00;;;6.00
7389;BMP180;3735;50.136;11.062;2022-09-30T01:37:09;97347.00;;;5.80
7389;BMP180;3735;50.136;11.062;2022-09-30T01:40:03;97348.00;;;5.70
7389;BMP180;3735;50.136;11.062;2022-09-30T01:43:05;97353.00;;;5.70
7389;BMP180;3735;50.136;11.062;2022-09-30T01:46:17;97347.00;;;5.50
7389;BMP180;3735;50.136;11.062;2022-09-30T01:51:54;97360.00;;;5.60
7389;BMP180;3735;50.136;11.062;2022-09-30T01:54:52;97355.00;;;5.60
7389;BMP180;3735;50.136;11.062;2022-09-30T01:57:56;97355.00;;;5.50
7389;BMP180;3735;50.136;11.062;2022-09-30T02:00:26;97353.00;;;5.40
7389;BMP180;3735;50.136;11.062;2022-09-30T02:03:23;97363.00;;;5.40
7389;BMP180;3735;50.136;11.062;2022-09-30T02:06:21;97365.00;;;5.50
7389;BMP180;3735;50.136;11.062;2022-09-30T02:08:58;97366.00;;;5.60
7389;BMP180;3735;50.136;11.062;2022-09-30T02:11:31;97366.00;;;5.70
7389;BMP180;3735;50.136;11.062;2022-09-30T02:14:13;97372.00;;;5.70
7389;BMP180;3735;50.136;11.062;2022-09-30T02:16:47;97378.00;;;5.70
7389;BMP180;3735;50.136;11.062;2022-09-30T02:19:42;97384.00;;;5.60
7389;BMP180;3735;50.136;11.062;2022-09-30T02:22:32;97379.00;;;5.60
7389;BMP180;3735;50.136;11.062;2022-09-30T02:25:07;97373.00;;;5.40
7389;BMP180;3735;50.136;11.062;2022-09-30T02:27:40;97369.00;;;5.20
7389;BMP180;3735;50.136;11.062;2022-09-30T02:30:11;97373.00;;;5.10
7389;BMP180;3735;50.136;11.062;2022-09-30T02:36:32;97376.00;;;4.90
7389;BMP180;3735;50.136;11.062;2022-09-30T02:39:05;97393.00;;;4.90
7389;BMP180;3735;50.136;11.062;2022-09-30T02:41:55;97393.00;;;4.90
7389;BMP180;3735;50.136;11.062;2022-09-30T02:44:27;97392.00;;;5.00
7389;BMP180;3735;50.136;11.062;2022-09-30T02:49:53;97398.00;;;5.20
7389;BMP180;3735;50.136;11.062;2022-09-30T02:57:59;97410.00;;;5.40
7389;BMP180;3735;50.136;11.062;2022-09-30T03:00:28;97414.00;;;5.50
7389;BMP180;3735;50.136;11.062;2022-09-30T03:03:03;97417.00;;;5.20
7389;BMP180;3735;50.136;11.062;2022-09-30T03:05:30;97419.00;;;5.60
7389;BMP180;3735;50.136;11.062;2022-09-30T03:07:56;97408.00;;;5.60
7389;BMP180;3735;50.136;11.062;2022-09-30T03:10:25;97399.00;;;5.60
7389;BMP180;3735;50.136;11.062;2022-09-30T03:18:52;97415.00;;;5.70
7389;BMP180;3735;50.136;11.062;2022-09-30T03:30:19;97426.00;;;5.40
7389;BMP180;3735;50.136;11.062;2022-09-30T03:33:35;97411.00;;;5.40
7389;BMP180;3735;50.136;11.062;2022-09-30T03:36:27;97427.00;;;5.40
7389;BMP180;3735;50.136;11.062;2022-09-30T03:39:27;97329.00;;;5.20
7389;BMP180;3735;50.136;11.062;2022-09-30T03:42:12;97432.00;;;5.00
7389;BMP180;3735;50.136;11.062;2022-09-30T03:45:06;97434.00;;;4.80
7389;BMP180;3735;50.136;11.062;2022-09-30T03:47:43;97439.00;;;4.70
7389;BMP180;3735;50.136;11.062;2022-09-30T03:50:17;97426.00;;;4.70
7389;BMP180;3735;50.136;11.062;2022-09-30T03:52:45;97438.00;;;4.60
7389;BMP180;3735;50.136;11.062;2022-09-30T03:55:11;97441.00;;;4.60
7389;BMP180;3735;50.136;11.062;2022-09-30T03:57:40;97446.00;;;4.60
7389;BMP180;3735;50.136;11.062;2022-09-30T04:00:11;97432.00;;;4.60
7389;BMP180;3735;50.136;11.062;2022-09-30T04:02:37;97443.00;;;4.50
7389;BMP180;3735;50.136;11.062;2022-09-30T04:05:05;97450.00;;;4.30
7389;BMP180;3735;50.136;11.062;2022-09-30T04:07:37;97445.00;;;4.20
7389;BMP180;3735;50.136;11.062;2022-09-30T04:10:04;97454.00;;;4.00
7389;BMP180;3735;50.136;11.062;2022-09-30T04:12:30;97451.00;;;3.90
7389;BMP180;3735;50.136;11.062;2022-09-30T04:14:56;97468.00;;;3.80
7389;BMP180;3735;50.136;11.062;2022-09-30T04:17:22;97470.00;;;3.70
7389;BMP180;3735;50.136;11.062;2022-09-30T04:19:51;97466.00;;;3.60
7389;BMP180;3735;50.136;11.062;2022-09-30T04:22:19;97470.00;;;3.50
7389;BMP180;3735;50.136;11.062;2022-09-30T04:24:45;97473.00;;;3.50
7389;BMP180;3735;50.136;11.062;2022-09-30T04:27:14;97466.00;;;3.40
7389;BMP180;3735;50.136;11.062;2022-09-30T04:29:52;97470.00;;;3.30
7389;BMP180;3735;50.136;11.062;2022-09-30T04:32:20;97466.00;;;3.20
7389;BMP180;3735;50.136;11.062;2022-09-30T04:34:46;97480.00;;;3.20
7389;BMP180;3735;50.136;11.062;2022-09-30T04:37:15;97487.00;;;3.10
7389;BMP180;3735;50.136;11.062;2022-09-30T04:39:43;97476.00;;;3.10
7389;BMP180;3735;50.136;11.062;2022-09-30T04:42:09;97481.00;;;3.10
7389;BMP180;3735;50.136;11.062;2022-09-30T04:44:36;97472.00;;;3.00
7389;BMP180;3735;50.136;11.062;2022-09-30T04:47:01;97484.00;;;3.00
7389;BMP180;3735;50.136;11.062;2022-09-30T04:49:27;97484.00;;;3.00
7389;BMP180;3735;50.136;11.062;2022-09-30T04:51:54;97487.00;;;2.90
7389;BMP180;3735;50.136;11.062;2022-09-30T04:54:19;97490.00;;;2.90
7389;BMP180;3735;50.136;11.062;2022-09-30T04:56:45;97486.00;;;3.00
7389;BMP180;3735;50.136;11.062;2022-09-30T04:59:11;97490.00;;;3.20
7389;BMP180;3735;50.136;11.062;2022-09-30T05:01:37;97480.00;;;3.30
7389;BMP180;3735;50.136;11.062;2022-09-30T05:04:04;97479.00;;;3.50
7389;BMP180;3735;50.136;11.062;2022-09-30T05:06:30;97477.00;;;3.70
7389;BMP180;3735;50.136;11.062;2022-09-30T05:08:56;97478.00;;;3.80
7389;BMP180;3735;50.136;11.062;2022-09-30T05:11:22;97481.00;;;4.00
7389;BMP180;3735;50.136;11.062;2022-09-30T05:13:48;97486.00;;;4.10
7389;BMP180;3735;50.136;11.062;2022-09-30T05:16:16;97487.00;;;4.20
7389;BMP180;3735;50.136;11.062;2022-09-30T05:18:42;97486.00;;;4.30
7389;BMP180;3735;50.136;11.062;2022-09-30T05:21:15;97487.00;;;4.50
7389;BMP180;3735;50.136;11.062;2022-09-30T05:23:41;97489.00;;;4.60
7389;BMP180;3735;50.136;11.062;2022-09-30T05:26:07;97495.00;;;4.70
7389;BMP180;3735;50.136;11.062;2022-09-30T05:28:33;97496.00;;;4.80
7389;BMP180;3735;50.136;11.062;2022-09-30T05:31:03;97513.00;;;5.00
7389;BMP180;3735;50.136;11.062;2022-09-30T05:33:32;97499.00;;;5.00
7389;BMP180;3735;50.136;11.062;2022-09-30T05:36:02;97509.00;;;5.20
7389;BMP180;3735;50.136;11.062;2022-09-30T05:38:28;97505.00;;;5.30
7389;BMP180;3735;50.136;11.062;2022-09-30T05:40:54;97503.00;;;5.40
7389;BMP180;3735;50.136;11.062;2022-09-30T05:43:20;97514.00;;;5.40
7389;BMP180;3735;50.136;11.062;2022-09-30T05:45:56;97514.00;;;5.50
7389;BMP180;3735;50.136;11.062;2022-09-30T05:48:24;97525.00;;;5.60
7389;BMP180;3735;50.136;11.062;2022-09-30T05:50:57;97525.00;;;5.70
7389;BMP180;3735;50.136;11.062;2022-09-30T05:53:27;97534.00;;;5.80
7389;BMP180;3735;50.136;11.062;2022-09-30T05:55:53;97545.00;;;5.90
7389;BMP180;3735;50.136;11.062;2022-09-30T05:58:19;97536.00;;;6.00
7389;BMP180;3735;50.136;11.062;2022-09-30T06:00:49;97541.00;;;6.10
7389;BMP180;3735;50.136;11.062;2022-09-30T06:03:16;97524.00;;;6.20
7389;BMP180;3735;50.136;11.062;2022-09-30T06:05:42;97537.00;;;6.20
7389;BMP180;3735;50.136;11.062;2022-09-30T06:08:11;97535.00;;;6.30
7389;BMP180;3735;50.136;11.062;2022-09-30T06:10:40;97549.00;;;6.40
7389;BMP180;3735;50.136;11.062;2022-09-30T06:13:07;97558.00;;;6.30
7389;BMP180;3735;50.136;11.062;2022-09-30T06:15:33;97552.00;;;6.30
7389;BMP180;3735;50.136;11.062;2022-09-30T06:17:58;97546.00;;;6.30
7389;BMP180;3735;50.136;11.062;2022-09-30T06:20:25;97551.00;;;6.30
7389;BMP180;3735;50.136;11.062;2022-09-30T06:22:50;97528.00;;;6.40
7389;BMP180;3735;50.136;11.062;2022-09-30T06:25:16;97559.00;;;6.40
7389;BMP180;3735;50.136;11.062;2022-09-30T06:27:46;97555.00;;;6.40
7389;BMP180;3735;50.136;11.062;2022-09-30T06:30:12;97564.00;;;6.40
7389;BMP180;3735;50.136;11.062;2022-09-30T06:32:38;97560.00;;;6.60
7389;BMP180;3735;50.136;11.062;2022-09-30T06:35:04;97561.00;;;6.70
7389;BMP180;3735;50.136;11.062;2022-09-30T06:37:37;97561.00;;;6.80
7389;BMP180;3735;50.136;11.062;2022-09-30T06:40:06;97567.00;;;6.90
7389;BMP180;3735;50.136;11.062;2022-09-30T06:42:32;97574.00;;;6.90
7389;BMP180;3735;50.136;11.062;2022-09-30T06:44:58;97575.00;;;6.90
7389;BMP180;3735;50.136;11.062;2022-09-30T06:47:24;97571.00;;;7.00
7389;BMP180;3735;50.136;11.062;2022-09-30T06:49:50;97582.00;;;7.00
7389;BMP180;3735;50.136;11.062;2022-09-30T06:52:18;97592.00;;;7.00
7389;BMP180;3735;50.136;11.062;2022-09-30T06:54:44;97587.00;;;7.10
7389;BMP180;3735;50.136;11.062;2022-09-30T06:57:12;97597.00;;;7.30
7389;BMP180;3735;50.136;11.062;2022-09-30T06:59:37;97596.00;;;7.40
7389;BMP180;3735;50.136;11.062;2022-09-30T07:02:04;97592.00;;;7.40
7389;BMP180;3735;50.136;11.062;2022-09-30T07:04:29;97598.00;;;7.50
7389;BMP180;3735;50.136;11.062;2022-09-30T07:06:55;97609.00;;;7.40
7389;BMP180;3735;50.136;11.062;2022-09-30T07:09:21;97604.00;;;7.60
7389;BMP180;3735;50.136;11.062;2022-09-30T07:11:47;97609.00;;;7.60
7389;BMP180;3735;50.136;11.062;2022-09-30T07:14:13;97607.00;;;7.60
7389;BMP180;3735;50.136;11.062;2022-09-30T07:16:39;97620.00;;;7.60
7389;BMP180;3735;50.136;11.062;2022-09-30T07:19:06;97633.00;;;7.70
7389;BMP180;3735;50.136;11.062;2022-09-30T07:21:34;97639.00;;;8.00
7389;BMP180;3735;50.136;11.062;2022-09-30T07:24:00;97641.00;;;7.90
7389;BMP180;3735;50.136;11.062;2022-09-30T07:26:27;97637.00;;;7.60
7389;BMP180;3735;50.136;11.062;2022-09-30T07:28:53;97622.00;;;7.80
7389;BMP180;3735;50.136;11.062;2022-09-30T07:31:24;97635.00;;;7.80
7389;BMP180;3735;50.136;11.062;2022-09-30T07:33:50;97644.00;;;8.10
7389;BMP180;3735;50.136;11.062;2022-09-30T07:36:22;97637.00;;;8.30
7389;BMP180;3735;50.136;11.062;2022-09-30T07:38:52;97641.00;;;8.50
7389;BMP180;3735;50.136;11.062;2022-09-30T07:41:23;97636.00;;;8.70
7389;BMP180;3735;50.136;11.062;2022-09-30T07:43:54;97635.00;;;8.90
7389;BMP180;3735;50.136;11.062;2022-09-30T07:46:33;97641.00;;;9.10
7389;BMP180;3735;50.136;11.062;2022-09-30T07:49:00;97636.00;;;9.30
7389;BMP180;3735;50.136;11.062;2022-09-30T07:51:35;97647.00;;;9.20
7389;BMP180;3735;50.136;11.062;2022-09-30T07:54:10;97649.00;;;9.50
7389;BMP180;3735;50.136;11.062;2022-09-30T07:56:36;97657.00;;;9.50
7389;BMP180;3735;50.136;11.062;2022-09-30T07:59:04;97650.00;;;9.40
7389;BMP180;3735;50.136;11.062;2022-09-30T08:01:31;97669.00;;;9.30
7389;BMP180;3735;50.136;11.062;2022-09-30T08:04:01;97663.00;;;9.30
7389;BMP180;3735;50.136;11.062;2022-09-30T08:06:30;97669.00;;;9.30
7389;BMP180;3735;50.136;11.062;2022-09-30T08:08:57;97672.00;;;9.30
7389;BMP180;3735;50.136;11.062;2022-09-30T08:11:24;97667.00;;;9.10
7389;BMP180;3735;50.136;11.062;2022-09-30T08:13:55;97671.00;;;9.60
7389;BMP180;3735;50.136;11.062;2022-09-30T08:16:25;97661.00;;;9.90
7389;BMP180;3735;50.136;11.062;2022-09-30T08:19:01;97677.00;;;10.30
7389;BMP180;3735;50.136;11.062;2022-09-30T08:21:28;97680.00;;;10.50
7389;BMP180;3735;50.136;11.062;2022-09-30T08:23:56;97675.00;;;10.50
7389;BMP180;3735;50.136;11.062;2022-09-30T08:26:22;97676.00;;;10.80
7389;BMP180;3735;50.136;11.062;2022-09-30T08:28:49;97671.00;;;10.70
7389;BMP180;3735;50.136;11.062;2022-09-30T08:31:21;97689.00;;;11.00
7389;BMP180;3735;50.136;11.062;2022-09-30T08:33:48;97681.00;;;11.20
7389;BMP180;3735;50.136;11.062;2022-09-30T08:36:25;97684.00;;;11.50
7389;BMP180;3735;50.136;11.062;2022-09-30T08:38:53;97684.00;;;11.70
7389;BMP180;3735;50.136;11.062;2022-09-30T08:41:59;97690.00;;;12.20
7389;BMP180;3735;50.136;11.062;2022-09-30T08:50:52;97689.00;;;12.30
7389;BMP180;3735;50.136;11.062;2022-09-30T08:53:35;97693.00;;;12.00
7389;BMP180;3735;50.136;11.062;2022-09-30T08:56:02;97681.00;;;12.50
7389;BMP180;3735;50.136;11.062;2022-09-30T08:58:40;97694.00;;;12.40
7389;BMP180;3735;50.136;11.062;2022-09-30T09:01:24;97692.00;;;12.70
7389;BMP180;3735;50.136;11.062;2022-09-30T09:03:53;97694.00;;;13.10
7389;BMP180;3735;50.136;11.062;2022-09-30T09:09:37;97683.00;;;15.00
7389;BMP180;3735;50.136;11.062;2022-09-30T09:15:14;97674.00;;;17.70
7389;BMP180;3735;50.136;11.062;2022-09-30T09:20:35;97669.00;;;19.60
7389;BMP180;3735;50.136;11.062;2022-09-30T09:23:08;97670.00;;;20.90
7389;BMP180;3735;50.136;11.062;2022-09-30T09:25:35;97665.00;;;21.60
7389;BMP180;3735;50.136;11.062;2022-09-30T09:28:08;97669.00;;;21.20
7389;BMP180;3735;50.136;11.062;2022-09-30T09:30:48;97671.00;;;21.80
7389;BMP180;3735;50.136;11.062;2022-09-30T09:33:25;97669.00;;;22.10
7389;BMP180;3735;50.136;11.062;2022-09-30T09:45:09;97675.00;;;22.70
7389;BMP180;3735;50.136;11.062;2022-09-30T09:47:38;97675.00;;;23.20
7389;BMP180;3735;50.136;11.062;2022-09-30T09:50:16;97672.00;;;23.30
7389;BMP180;3735;50.136;11.062;2022-09-30T09:55:55;97690.00;;;21.60
7389;BMP180;3735;50.136;11.062;2022-09-30T09:58:25;97693.00;;;21.50
7389;BMP180;3735;50.136;11.062;2022-09-30T10:00:51;97691.00;;;21.40
7389;BMP180;3735;50.136;11.062;2022-09-30T10:03:21;97689.00;;;22.40
7389;BMP180;3735;50.136;11.062;2022-09-30T10:06:07;97693.00;;;21.20
7389;BMP180;3735;50.136;11.062;2022-09-30T10:08:51;97694.00;;;21.70
7389;BMP180;3735;50.136;11.062;2022-09-30T10:11:22;97700.00;;;22.10
7389;BMP180;3735;50.136;11.062;2022-09-30T10:13:49;97694.00;;;22.90
7389;BMP180;3735;50.136;11.062;2022-09-30T10:16:35;97694.00;;;22.70
7389;BMP180;3735;50.136;11.062;2022-09-30T10:19:22;97685.00;;;22.50
7389;BMP180;3735;50.136;11.062;2022-09-30T10:21:49;97682.00;;;23.40
7389;BMP180;3735;50.136;11.062;2022-09-30T10:24:29;97673.00;;;24.00
7389;BMP180;3735;50.136;11.062;2022-09-30T10:26:56;97676.00;;;24.00
7389;BMP180;3735;50.136;11.062;2022-09-30T10:29:32;97680.00;;;23.90
7389;BMP180;3735;50.136;11.062;2022-09-30T10:32:00;97671.00;;;23.70
7389;BMP180;3735;50.136;11.062;2022-09-30T10:36:56;97674.00;;;24.00
7389;BMP180;3735;50.136;11.062;2022-09-30T10:39:37;97664.00;;;23.60
7389;BMP180;3735;50.136;11.062;2022-09-30T10:42:17;97677.00;;;23.50
7389;BMP180;3735;50.136;11.062;2022-09-30T10:45:00;97671.00;;;23.30
7389;BMP180;3735;50.136;11.062;2022-09-30T10:47:29;97670.00;;;23.50
7389;BMP180;3735;50.136;11.062;2022-09-30T10:50:04;97670.00;;;24.30
7389;BMP180;3735;50.136;11.062;2022-09-30T10:52:38;97673.00;;;24.40
7389;BMP180;3735;50.136;11.062;2022-09-30T10:55:32;97675.00;;;24.50
7389;BMP180;3735;50.136;11.062;2022-09-30T11:03:48;97668.00;;;24.30
7389;BMP180;3735;50.136;11.062;2022-09-30T11:06:17;97682.00;;;23.70
7389;BMP180;3735;50.136;11.062;2022-09-30T11:08:56;97679.00;;;23.30
7389;BMP180;3735;50.136;11.062;2022-09-30T11:11:32;97671.00;;;23.30
7389;BMP180;3735;50.136;11.062;2022-09-30T11:20:04;97688.00;;;24.10
7389;BMP180;3735;50.136;11.062;2022-09-30T11:22:48;97693.00;;;23.60
7389;BMP180;3735;50.136;11.062;2022-09-30T11:31:48;97686.00;;;24.20
7389;BMP180;3735;50.136;11.062;2022-09-30T11:34:23;97687.00;;;24.50
7389;BMP180;3735;50.136;11.062;2022-09-30T11:43:07;97694.00;;;24.60
7389;BMP180;3735;50.136;11.062;2022-09-30T11:48:40;97694.00;;;23.50
7389;BMP180;3735;50.136;11.062;2022-09-30T11:59:29;97694.00;;;25.50
7389;BMP180;3735;50.136;11.062;2022-09-30T12:02:03;97682.00;;;25.70
7389;BMP180;3735;50.136;11.062;2022-09-30T12:04:39;97689.00;;;25.10
7389;BMP180;3735;50.136;11.062;2022-09-30T12:07:15;97693.00;;;26.20
7389;BMP180;3735;50.136;11.062;2022-09-30T12:10:00;97691.00;;;26.00
7389;BMP180;3735;50.136;11.062;2022-09-30T12:12:27;97683.00;;;26.20
7389;BMP180;3735;50.136;11.062;2022-09-30T12:15:05;97687.00;;;26.20
7389;BMP180;3735;50.136;11.062;2022-09-30T12:17:54;97685.00;;;25.80
7389;BMP180;3735;50.136;11.062;2022-09-30T12:20:28;97689.00;;;26.30
7389;BMP180;3735;50.136;11.062;2022-09-30T12:23:22;97691.00;;;26.50
7389;BMP180;3735;50.136;11.062;2022-09-30T12:26:01;97700.00;;;26.40
7389;BMP180;3735;50.136;11.062;2022-09-30T12:43:05;97707.00;;;24.80
7389;BMP180;3735;50.136;11.062;2022-09-30T12:46:13;97694.00;;;25.30
7389;BMP180;3735;50.136;11.062;2022-09-30T12:48:54;97712.00;;;24.90
7389;BMP180;3735;50.136;11.062;2022-09-30T12:51:29;97698.00;;;25.20
7389;BMP180;3735;50.136;11.062;2022-09-30T12:57:02;97712.00;;;24.90
7389;BMP180;3735;50.136;11.062;2022-09-30T12:59:49;97711.00;;;26.00
7389;BMP180;3735;50.136;11.062;2022-09-30T13:02:38;97707.00;;;25.80
7389;BMP180;3735;50.136;11.062;2022-09-30T13:05:46;97709.00;;;26.60
7389;BMP180;3735;50.136;11.062;2022-09-30T13:10:57;97712.00;;;26.10
7389;BMP180;3735;50.136;11.062;2022-09-30T13:15:57;97717.00;;;26.20
7389;BMP180;3735;50.136;11.062;2022-09-30T13:26:39;97711.00;;;24.00
7389;BMP180;3735;50.136;11.062;2022-09-30T13:34:28;97712.00;;;24.70
7389;BMP180;3735;50.136;11.062;2022-09-30T13:37:04;97714.00;;;25.50
7389;BMP180;3735;50.136;11.062;2022-09-30T13:39:53;97718.00;;;25.20
7389;BMP180;3735;50.136;11.062;2022-09-30T13:42:29;97720.00;;;23.60
7389;BMP180;3735;50.136;11.062;2022-09-30T13:45:15;97731.00;;;23.50
7389;BMP180;3735;50.136;11.062;2022-09-30T13:47:46;97729.00;;;23.00
7389;BMP180;3735;50.136;11.062;2022-09-30T13:50:38;97731.00;;;23.20
7389;BMP180;3735;50.136;11.062;2022-09-30T13:53:24;97729.00;;;22.90
7389;BMP180;3735;50.136;11.062;2022-09-30T13:55:54;97726.00;;;22.80
7389;BMP180;3735;50.136;11.062;2022-09-30T13:58:56;97733.00;;;22.70
7389;BMP180;3735;50.136;11.062;2022-09-30T14:08:02;97733.00;;;23.70
7389;BMP180;3735;50.136;11.062;2022-09-30T14:14:13;97734.00;;;24.80
7389;BMP180;3735;50.136;11.062;2022-09-30T14:17:06;97734.00;;;24.80
7389;BMP180;3735;50.136;11.062;2022-09-30T14:22:40;97737.00;;;23.70
7389;BMP180;3735;50.136;11.062;2022-09-30T14:25:18;97731.00;;;24.20
7389;BMP180;3735;50.136;11.062;2022-09-30T14:28:05;97732.00;;;23.40
7389;BMP180;3735;50.136;11.062;2022-09-30T14:30:41;97733.00;;;23.50
7389;BMP180;3735;50.136;11.062;2022-09-30T14:33:28;97733.00;;;23.70
7389;BMP180;3735;50.136;11.062;2022-09-30T14:36:00;97739.00;;;22.60
7389;BMP180;3735;50.136;11.062;2022-09-30T14:38:29;97743.00;;;21.90
7389;BMP180;3735;50.136;11.062;2022-09-30T14:41:01;97746.00;;;22.30
7389;BMP180;3735;50.136;11.062;2022-09-30T14:43:39;97747.00;;;23.20
7389;BMP180;3735;50.136;11.062;2022-09-30T14:48:59;97747.00;;;22.60
7389;BMP180;3735;50.136;11.062;2022-09-30T14:51:34;97741.00;;;22.80
7389;BMP180;3735;50.136;11.062;2022-09-30T14:54:01;97745.00;;;23.40
7389;BMP180;3735;50.136;11.062;2022-09-30T14:56:34;97754.00;;;22.30
7389;BMP180;3735;50.136;11.062;2022-09-30T15:01:50;97750.00;;;21.40
7389;BMP180;3735;50.136;11.062;2022-09-30T15:04:32;97745.00;;;21.50
7389;BMP180;3735;50.136;11.062;2022-09-30T15:06:59;97746.00;;;21.20
7389;BMP180;3735;50.136;11.062;2022-09-30T15:09:44;97746.00;;;20.90
7389;BMP180;3735;50.136;11.062;2022-09-30T15:12:22;97740.00;;;20.60
7389;BMP180;3735;50.136;11.062;2022-09-30T15:14:58;97752.00;;;20.40
7389;BMP180;3735;50.136;11.062;2022-09-30T15:17:44;97742.00;;;21.20
7389;BMP180;3735;50.136;11.062;2022-09-30T15:20:31;97741.00;;;21.30
7389;BMP180;3735;50.136;11.062;2022-09-30T15:23:15;97743.00;;;20.90
7389;BMP180;3735;50.136;11.062;2022-09-30T15:25:43;97747.00;;;21.90
7389;BMP180;3735;50.136;11.062;2022-09-30T15:28:10;97743.00;;;21.40
7389;BMP180;3735;50.136;11.062;2022-09-30T15:30:37;97743.00;;;20.90
7389;BMP180;3735;50.136;11.062;2022-09-30T15:33:04;97756.00;;;19.50
7389;BMP180;3735;50.136;11.062;2022-09-30T15:35:31;97749.00;;;19.20
7389;BMP180;3735;50.136;11.062;2022-09-30T15:38:21;97746.00;;;17.70
7389;BMP180;3735;50.136;11.062;2022-09-30T15:41:02;97756.00;;;16.60
7389;BMP180;3735;50.136;11.062;2022-09-30T15:43:32;97765.00;;;16.50
7389;BMP180;3735;50.136;11.062;2022-09-30T15:46:29;97773.00;;;15.80
7389;BMP180;3735;50.136;11.062;2022-09-30T15:49:05;97773.00;;;15.50
7389;BMP180;3735;50.136;11.062;2022-09-30T15:51:47;97773.00;;;15.10
7389;BMP180;3735;50.136;11.062;2022-09-30T15:54:35;97773.00;;;15.00
7389;BMP180;3735;50.136;11.062;2022-09-30T16:00:05;97779.00;;;14.60
7389;BMP180;3735;50.136;11.062;2022-09-30T16:02:33;97771.00;;;14.40
7389;BMP180;3735;50.136;11.062;2022-09-30T16:05:01;97735.00;;;14.30
7389;BMP180;3735;50.136;11.062;2022-09-30T16:07:30;97775.00;;;14.20
7389;BMP180;3735;50.136;11.062;2022-09-30T16:09:57;97756.00;;;14.00
7389;BMP180;3735;50.136;11.062;2022-09-30T16:12:31;97774.00;;;13.90
7389;BMP180;3735;50.136;11.062;2022-09-30T16:15:10;97766.00;;;13.80
7389;BMP180;3735;50.136;11.062;2022-09-30T16:17:48;97769.00;;;13.60
7389;BMP180;3735;50.136;11.062;2022-09-30T16:28:08;97784.00;;;12.90
7389;BMP180;3735;50.136;11.062;2022-09-30T16:30:46;97775.00;;;12.70
7389;BMP180;3735;50.136;11.062;2022-09-30T16:33:14;97780.00;;;12.50
7389;BMP180;3735;50.136;11.062;2022-09-30T16:35:42;97786.00;;;12.30
7389;BMP180;3735;50.136;11.062;2022-09-30T16:38:14;97790.00;;;12.20
7389;BMP180;3735;50.136;11.062;2022-09-30T16:40:40;97782.00;;;12.10
7389;BMP180;3735;50.136;11.062;2022-09-30T16:43:06;97792.00;;;11.90
7389;BMP180;3735;50.136;11.062;2022-09-30T16:45:32;97790.00;;;11.70
7389;BMP180;3735;50.136;11.062;2022-09-30T16:48:00;97786.00;;;11.50
7389;BMP180;3735;50.136;11.062;2022-09-30T16:51:02;97801.00;;;11.30
7389;BMP180;3735;50.136;11.062;2022-09-30T16:53:29;97802.00;;;11.10
7389;BMP180;3735;50.136;11.062;2022-09-30T16:55:55;97799.00;;;10.90
7389;BMP180;3735;50.136;11.062;2022-09-30T16:58:21;97795.00;;;10.70
7389;BMP180;3735;50.136;11.062;2022-09-30T17:00:47;97805.00;;;10.50
7389;BMP180;3735;50.136;11.062;2022-09-30T17:03:15;97803.00;;;10.30
7389;BMP180;3735;50.136;11.062;2022-09-30T17:05:44;97810.00;;;10.10
7389;BMP180;3735;50.136;11.062;2022-09-30T17:08:13;97814.00;;;9.90
7389;BMP180;3735;50.136;11.062;2022-09-30T17:10:41;97807.00;;;9.80
7389;BMP180;3735;50.136;11.062;2022-09-30T17:13:07;97813.00;;;9.60
7389;BMP180;3735;50.136;11.062;2022-09-30T17:15:33;97803.00;;;9.50
7389;BMP180;3735;50.136;11.062;2022-09-30T17:18:06;97806.00;;;9.30
7389;BMP180;3735;50.136;11.062;2022-09-30T17:20:33;97810.00;;;9.20
7389;BMP180;3735;50.136;11.062;2022-09-30T17:22:59;97805.00;;;9.00
7389;BMP180;3735;50.136;11.062;2022-09-30T17:25:25;97812.00;;;8.90
7389;BMP180;3735;50.136;11.062;2022-09-30T17:27:51;97805.00;;;8.80
7389;BMP180;3735;50.136;11.062;2022-09-30T17:30:18;97806.00;;;8.70
7389;BMP180;3735;50.136;11.062;2022-09-30T17:32:44;97803.00;;;8.60
7389;BMP180;3735;50.136;11.062;2022-09-30T17:35:11;97810.00;;;8.50
7389;BMP180;3735;50.136;11.062;2022-09-30T17:37:37;97810.00;;;8.50
7389;BMP180;3735;50.136;11.062;2022-09-30T17:40:05;97807.00;;;8.50
7389;BMP180;3735;50.136;11.062;2022-09-30T17:42:52;97804.00;;;8.50
7389;BMP180;3735;50.136;11.062;2022-09-30T17:45:37;97794.00;;;8.50
7389;BMP180;3735;50.136;11.062;2022-09-30T17:48:04;97790.00;;;8.50
7389;BMP180;3735;50.136;11.062;2022-09-30T17:50:36;97792.00;;;8.50
7389;BMP180;3735;50.136;11.062;2022-09-30T17:53:02;97780.00;;;8.50
7389;BMP180;3735;50.136;11.062;2022-09-30T17:55:29;97804.00;;;8.40
7389;BMP180;3735;50.136;11.062;2022-09-30T17:57:55;97813.00;;;8.40
7389;BMP180;3735;50.136;11.062;2022-09-30T18:00:22;97797.00;;;8.30
7389;BMP180;3735;50.136;11.062;2022-09-30T18:02:47;97802.00;;;8.20
7389;BMP180;3735;50.136;11.062;2022-09-30T18:05:13;97801.00;;;8.20